sensor_id;sensor_type;location;lat;lon;timestamp;pressure;altitude;pressure_sealevel;temperature;humidity
48668;BME280;34453;52.198;5.004;2023-11-21T00:01:43;99034.53;;;7.52;100.00
48668;BME280;34453;52.198;5.004;2023-11-21T00:04:09;99034.34;;;7.53;100.00
48668;BME280;34453;52.198;5.004;2023-11-21T00:06:34;99036.31;;;7.51;100.00
48668;BME280;34453;52.198;5.004;2023-11-21T00:09:00;99036.31;;;7.51;100.00
48668;BME280;34453;52.198;5.004;2023-11-21T00:11:25;99040.72;;;7.51;100.00
48668;BME280;34453;52.198;5.004;2023-11-21T00:13:50;99040.72;;;7.51;100.00
48668;BME280;34453;52.198;5.004;2023-11-21T00:16:16;99042.34;;;7.52;100.00
48668;BME280;34453;52.198;5.004;2023-11-21T00:18:41;99046.41;;;7.54;100.00
48668;BME280;34453;52.198;5.004;2023-11-21T00:21:08;99051.28;;;7.49;100.00
48668;BME280;34453;52.198;5.004;2023-11-21T00:23:34;99046.25;;;7.47;100.00
48668;BME280;34453;52.198;5.004;2023-11-21T00:25:59;99048.50;;;7.51;100.00
48668;BME280;34453;52.198;5.004;2023-11-21T00:28:24;99042.00;;;7.46;100.00
48668;BME280;34453;52.198;5.004;2023-11-21T00:30:50;99054.56;;;7.35;100.00
48668;BME280;34453;52.198;5.004;2023-11-21T00:33:19;99053.91;;;7.33;100.00
48668;BME280;34453;52.198;5.004;2023-11-21T00:35:44;99047.91;;;7.32;100.00
48668;BME280;34453;52.198;5.004;2023-11-21T00:38:10;99041.53;;;7.35;100.00
48668;BME280;34453;52.198;5.004;2023-11-21T00:40:35;99037.16;;;7.35;100.00
48668;BME280;34453;52.198;5.004;2023-11-21T00:43:01;99046.09;;;7.41;100.00
48668;BME280;34453;52.198;5.004;2023-11-21T00:45:26;99044.31;;;7.41;100.00
48668;BME280;34453;52.198;5.004;2023-11-21T00:47:51;99039.25;;;7.48;100.00
48668;BME280;34453;52.198;5.004;2023-11-21T00:50:17;99042.50;;;7.50;100.00
48668;BME280;34453;52.198;5.004;2023-11-21T00:52:42;99033.22;;;7.56;100.00
48668;BME280;34453;52.198;5.004;2023-11-21T00:55:07;99033.34;;;7.62;100.00
48668;BME280;34453;52.198;5.004;2023-11-21T00:57:33;99022.16;;;7.62;100.00
48668;BME280;34453;52.198;5.004;2023-11-21T00:59:59;99032.25;;;7.65;100.00
48668;BME280;34453;52.198;5.004;2023-11-21T01:02:25;99022.13;;;7.70;100.00
48668;BME280;34453;52.198;5.004;2023-11-21T01:04:50;99020.81;;;7.74;100.00
48668;BME280;34453;52.198;5.004;2023-11-21T01:07:17;99026.03;;;7.74;100.00
48668;BME280;34453;52.198;5.004;2023-11-21T01:09:45;99020.47;;;7.77;100.00
48668;BME280;34453;52.198;5.004;2023-11-21T01:12:10;99024.06;;;7.76;100.00
48668;BME280;34453;52.198;5.004;2023-11-21T01:14:38;99027.97;;;7.80;100.00
48668;BME280;34453;52.198;5.004;2023-11-21T01:17:05;99021.28;;;7.78;100.00
48668;BME280;34453;52.198;5.004;2023-11-21T01:19:43;99016.72;;;7.80;100.00
48668;BME280;34453;52.198;5.004;2023-11-21T01:22:08;99021.63;;;7.75;100.00
48668;BME280;34453;52.198;5.004;2023-11-21T01:24:34;99013.81;;;7.83;100.00
48668;BME280;34453;52.198;5.004;2023-11-21T01:27:00;99022.06;;;7.86;100.00
48668;BME280;34453;52.198;5.004;2023-11-21T01:29:25;99025.16;;;7.90;100.00
48668;BME280;34453;52.198;5.004;2023-11-21T01:31:51;99026.78;;;7.91;100.00
48668;BME280;34453;52.198;5.004;2023-11-21T01:34:16;99030.03;;;7.93;100.00
48668;BME280;34453;52.198;5.004;2023-11-21T01:36:42;99036.03;;;7.94;100.00
48668;BME280;34453;52.198;5.004;2023-11-21T01:39:07;99031.81;;;7.93;100.00
48668;BME280;34453;52.198;5.004;2023-11-21T01:41:36;99036.38;;;7.91;100.00
48668;BME280;34453;52.198;5.004;2023-11-21T01:44:01;99039.00;;;7.91;100.00
48668;BME280;34453;52.198;5.004;2023-11-21T01:46:28;99042.09;;;7.86;100.00
48668;BME280;34453;52.198;5.004;2023-11-21T01:48:54;99050.41;;;7.89;100.00
48668;BME280;34453;52.198;5.004;2023-11-21T01:51:20;99054.78;;;7.89;100.00
48668;BME280;34453;52.198;5.004;2023-11-21T01:53:46;99053.00;;;7.89;100.00
48668;BME280;34453;52.198;5.004;2023-11-21T01:56:11;99061.13;;;7.86;100.00
48668;BME280;34453;52.198;5.004;2023-11-21T01:58:37;99066.34;;;7.86;100.00
48668;BME280;34453;52.198;5.004;2023-11-21T02:01:02;99069.94;;;7.85;100.00
48668;BME280;34453;52.198;5.004;2023-11-21T02:03:28;99068.63;;;7.89;100.00
48668;BME280;34453;52.198;5.004;2023-11-21T02:06:02;99069.72;;;7.95;100.00
48668;BME280;34453;52.198;5.004;2023-11-21T02:08:27;99070.53;;;7.96;100.00
48668;BME280;34453;52.198;5.004;2023-11-21T02:10:56;99070.22;;;7.99;100.00
48668;BME280;34453;52.198;5.004;2023-11-21T02:13:22;99079.50;;;8.01;100.00
48668;BME280;34453;52.198;5.004;2023-11-21T02:15:49;99072.97;;;8.05;100.00
48668;BME280;34453;52.198;5.004;2023-11-21T02:18:17;99081.59;;;8.06;100.00
48668;BME280;34453;52.198;5.004;2023-11-21T02:20:42;99074.06;;;8.11;100.00
48668;BME280;34453;52.198;5.004;2023-11-21T02:23:08;99082.53;;;8.13;100.00
48668;BME280;34453;52.198;5.004;2023-11-21T02:25:33;99087.44;;;8.16;100.00
48668;BME280;34453;52.198;5.004;2023-11-21T02:28:00;99092.97;;;8.13;100.00
48668;BME280;34453;52.198;5.004;2023-11-21T02:30:26;99100.25;;;8.18;100.00
48668;BME280;34453;52.198;5.004;2023-11-21T02:32:53;99104.31;;;8.20;100.00
48668;BME280;34453;52.198;5.004;2023-11-21T02:35:18;99104.00;;;8.23;100.00
48668;BME280;34453;52.198;5.004;2023-11-21T02:37:46;99095.69;;;8.28;100.00
48668;BME280;34453;52.198;5.004;2023-11-21T02:40:11;99095.34;;;8.31;100.00
48668;BME280;34453;52.198;5.004;2023-11-21T02:42:45;99105.25;;;8.36;100.00
48668;BME280;34453;52.198;5.004;2023-11-21T02:45:12;99094.66;;;8.37;100.00
48668;BME280;34453;52.198;5.004;2023-11-21T02:47:38;99106.88;;;8.37;100.00
48668;BME280;34453;52.198;5.004;2023-11-21T02:50:03;99114.34;;;8.40;100.00
48668;BME280;34453;52.198;5.004;2023-11-21T02:52:28;99104.94;;;8.39;100.00
48668;BME280;34453;52.198;5.004;2023-11-21T02:54:54;99109.16;;;8.40;100.00
48668;BME280;34453;52.198;5.004;2023-11-21T02:57:19;99111.63;;;8.41;100.00
48668;BME280;34453;52.198;5.004;2023-11-21T02:59:44;99106.53;;;8.40;100.00
48668;BME280;34453;52.198;5.004;2023-11-21T03:02:10;99108.22;;;8.41;100.00
48668;BME280;34453;52.198;5.004;2023-11-21T03:04:35;99108.50;;;8.46;100.00
48668;BME280;34453;52.198;5.004;2023-11-21T03:07:00;99096.94;;;8.48;100.00
48668;BME280;34453;52.198;5.004;2023-11-21T03:09:26;99112.84;;;8.54;100.00
48668;BME280;34453;52.198;5.004;2023-11-21T03:11:52;99117.09;;;8.55;100.00
48668;BME280;34453;52.198;5.004;2023-11-21T03:14:17;99126.38;;;8.57;100.00
48668;BME280;34453;52.198;5.004;2023-11-21T03:16:43;99120.13;;;8.66;100.00
48668;BME280;34453;52.198;5.004;2023-11-21T03:19:10;99132.72;;;8.63;100.00
48668;BME280;34453;52.198;5.004;2023-11-21T03:21:35;99135.50;;;8.61;100.00
48668;BME280;34453;52.198;5.004;2023-11-21T03:24:01;99136.13;;;8.63;100.00
48668;BME280;34453;52.198;5.004;2023-11-21T03:26:26;99148.34;;;8.63;100.00
48668;BME280;34453;52.198;5.004;2023-11-21T03:28:51;99146.41;;;8.65;100.00
48668;BME280;34453;52.198;5.004;2023-11-21T03:31:18;99142.63;;;8.67;100.00
48668;BME280;34453;52.198;5.004;2023-11-21T03:33:44;99156.00;;;8.64;100.00
48668;BME280;34453;52.198;5.004;2023-11-21T03:36:10;99158.28;;;8.67;100.00
48668;BME280;34453;52.198;5.004;2023-11-21T03:38:36;99168.72;;;8.67;100.00
48668;BME280;34453;52.198;5.004;2023-11-21T03:41:02;99168.72;;;8.67;100.00
48668;BME280;34453;52.198;5.004;2023-11-21T03:43:27;99163.50;;;8.67;100.00
48668;BME280;34453;52.198;5.004;2023-11-21T03:45:52;99165.59;;;8.72;100.00
48668;BME280;34453;52.198;5.004;2023-11-21T03:48:18;99175.22;;;8.71;100.00
48668;BME280;34453;52.198;5.004;2023-11-21T03:50:43;99187.59;;;8.69;100.00
48668;BME280;34453;52.198;5.004;2023-11-21T03:53:08;99192.47;;;8.73;100.00
48668;BME280;34453;52.198;5.004;2023-11-21T03:55:33;99207.47;;;8.70;100.00
48668;BME280;34453;52.198;5.004;2023-11-21T03:57:59;99208.47;;;8.69;100.00
48668;BME280;34453;52.198;5.004;2023-11-21T04:00:24;99214.47;;;8.70;100.00
48668;BME280;34453;52.198;5.004;2023-11-21T04:02:52;99227.38;;;8.63;100.00
48668;BME280;34453;52.198;5.004;2023-11-21T04:05:17;99225.72;;;8.62;100.00
48668;BME280;34453;52.198;5.004;2023-11-21T04:07:42;99234.84;;;8.66;100.00
48668;BME280;34453;52.198;5.004;2023-11-21T04:10:08;99236.50;;;8.67;100.00
48668;BME280;34453;52.198;5.004;2023-11-21T04:12:34;99242.22;;;8.63;100.00
48668;BME280;34453;52.198;5.004;2023-11-21T04:15:00;99248.88;;;8.65;100.00
48668;BME280;34453;52.198;5.004;2023-11-21T04:17:25;99256.50;;;8.67;100.00
48668;BME280;34453;52.198;5.004;2023-11-21T04:19:50;99258.97;;;8.68;100.00
48668;BME280;34453;52.198;5.004;2023-11-21T04:22:15;99260.59;;;8.69;100.00
48668;BME280;34453;52.198;5.004;2023-11-21T04:24:41;99259.25;;;8.74;100.00
48668;BME280;34453;52.198;5.004;2023-11-21T04:27:06;99268.25;;;8.71;100.00
48668;BME280;34453;52.198;5.004;2023-11-21T04:29:31;99264.47;;;8.74;100.00
48668;BME280;34453;52.198;5.004;2023-11-21T04:31:57;99275.09;;;8.72;100.00
48668;BME280;34453;52.198;5.004;2023-11-21T04:34:22;99272.78;;;8.77;100.00
48668;BME280;34453;52.198;5.004;2023-11-21T04:36:47;99283.22;;;8.77;100.00
48668;BME280;34453;52.198;5.004;2023-11-21T04:39:12;99280.47;;;8.79;100.00
48668;BME280;34453;52.198;5.004;2023-11-21T04:41:38;99281.25;;;8.79;100.00
48668;BME280;34453;52.198;5.004;2023-11-21T04:44:06;99275.25;;;8.79;100.00
48668;BME280;34453;52.198;5.004;2023-11-21T04:46:31;99281.25;;;8.79;100.00
48668;BME280;34453;52.198;5.004;2023-11-21T04:48:57;99273.94;;;8.83;100.00
48668;BME280;34453;52.198;5.004;2023-11-21T04:51:23;99281.59;;;8.76;100.00
48668;BME280;34453;52.198;5.004;2023-11-21T04:53:48;99284.22;;;8.76;100.00
48668;BME280;34453;52.198;5.004;2023-11-21T04:56:13;99291.84;;;8.78;100.00
48668;BME280;34453;52.198;5.004;2023-11-21T04:58:39;99290.88;;;8.79;100.00
48668;BME280;34453;52.198;5.004;2023-11-21T05:01:05;99304.88;;;8.78;100.00
48668;BME280;34453;52.198;5.004;2023-11-21T05:03:30;99294.94;;;8.81;100.00
48668;BME280;34453;52.198;5.004;2023-11-21T05:05:56;99302.78;;;8.81;100.00
48668;BME280;34453;52.198;5.004;2023-11-21T05:08:21;99301.97;;;8.81;100.00
48668;BME280;34453;52.198;5.004;2023-11-21T05:10:47;99300.66;;;8.85;100.00
48668;BME280;34453;52.198;5.004;2023-11-21T05:13:13;99291.19;;;8.92;100.00
48668;BME280;34453;52.198;5.004;2023-11-21T05:15:42;99295.09;;;8.88;100.00
48668;BME280;34453;52.198;5.004;2023-11-21T05:18:07;99299.97;;;8.91;100.00
48668;BME280;34453;52.198;5.004;2023-11-21T05:20:32;99321.84;;;8.82;100.00
48668;BME280;34453;52.198;5.004;2023-11-21T05:22:58;99321.38;;;8.78;100.00
48668;BME280;34453;52.198;5.004;2023-11-21T05:25:23;99324.44;;;8.74;100.00
48668;BME280;34453;52.198;5.004;2023-11-21T05:27:49;99329.66;;;8.74;100.00
48668;BME280;34453;52.198;5.004;2023-11-21T05:30:14;99330.50;;;8.74;100.00
48668;BME280;34453;52.198;5.004;2023-11-21T05:32:40;99322.84;;;8.73;100.00
48668;BME280;34453;52.198;5.004;2023-11-21T05:35:08;99332.63;;;8.79;100.00
48668;BME280;34453;52.198;5.004;2023-11-21T05:37:41;99332.13;;;8.75;100.00
48668;BME280;34453;52.198;5.004;2023-11-21T05:40:07;99339.78;;;8.77;100.00
48668;BME280;34453;52.198;5.004;2023-11-21T05:42:33;99346.13;;;8.82;100.00
48668;BME280;34453;52.198;5.004;2023-11-21T05:44:58;99345.63;;;8.87;100.00
48668;BME280;34453;52.198;5.004;2023-11-21T05:47:24;99343.66;;;8.89;100.00
48668;BME280;34453;52.198;5.004;2023-11-21T05:49:51;99339.59;;;8.95;100.00
48668;BME280;34453;52.198;5.004;2023-11-21T05:52:17;99338.28;;;8.99;100.00
48668;BME280;34453;52.198;5.004;2023-11-21T05:54:42;99330.91;;;9.02;100.00
48668;BME280;34453;52.198;5.004;2023-11-21T05:57:08;99334.16;;;9.04;100.00
48668;BME280;34453;52.198;5.004;2023-11-21T05:59:34;99321.25;;;9.11;100.00
48668;BME280;34453;52.198;5.004;2023-11-21T06:01:59;99328.56;;;9.16;100.00
48668;BME280;34453;52.198;5.004;2023-11-21T06:04:24;99320.72;;;9.24;100.00
48668;BME280;34453;52.198;5.004;2023-11-21T06:06:50;99332.31;;;9.29;100.00
48668;BME280;34453;52.198;5.004;2023-11-21T06:09:16;99323.78;;;9.36;100.00
48668;BME280;34453;52.198;5.004;2023-11-21T06:11:41;99323.78;;;9.36;100.00
48668;BME280;34453;52.198;5.004;2023-11-21T06:14:06;99327.50;;;9.41;100.00
48668;BME280;34453;52.198;5.004;2023-11-21T06:16:33;99334.34;;;9.42;100.00
48668;BME280;34453;52.198;5.004;2023-11-21T06:18:58;99328.16;;;9.43;100.00
48668;BME280;34453;52.198;5.004;2023-11-21T06:21:24;99324.25;;;9.39;100.00
48668;BME280;34453;52.198;5.004;2023-11-21T06:23:49;99331.28;;;9.39;100.00
48668;BME280;34453;52.198;5.004;2023-11-21T06:26:15;99323.22;;;9.48;100.00
48668;BME280;34453;52.198;5.004;2023-11-21T06:28:40;99321.41;;;9.49;100.00
48668;BME280;34453;52.198;5.004;2023-11-21T06:31:06;99314.06;;;9.52;100.00
48668;BME280;34453;52.198;5.004;2023-11-21T06:33:32;99319.06;;;9.62;100.00
48668;BME280;34453;52.198;5.004;2023-11-21T06:35:57;99323.31;;;9.63;100.00
48668;BME280;34453;52.198;5.004;2023-11-21T06:38:23;99314.81;;;9.69;100.00
48668;BME280;34453;52.198;5.004;2023-11-21T06:40:49;99318.38;;;9.68;100.00
48668;BME280;34453;52.198;5.004;2023-11-21T06:43:14;99321.47;;;9.72;100.00
48668;BME280;34453;52.198;5.004;2023-11-21T06:45:40;99318.69;;;9.73;100.00
48668;BME280;34453;52.198;5.004;2023-11-21T06:48:05;99321.78;;;9.77;100.00
48668;BME280;34453;52.198;5.004;2023-11-21T06:50:31;99324.75;;;9.74;100.00
48668;BME280;34453;52.198;5.004;2023-11-21T06:52:56;99336.78;;;9.75;100.00
48668;BME280;34453;52.198;5.004;2023-11-21T06:55:21;99321.13;;;9.75;100.00
48668;BME280;34453;52.198;5.004;2023-11-21T06:57:47;99326.00;;;9.78;100.00
48668;BME280;34453;52.198;5.004;2023-11-21T07:00:13;99334.31;;;9.82;100.00
48668;BME280;34453;52.198;5.004;2023-11-21T07:02:40;99336.75;;;9.83;100.00
48668;BME280;34453;52.198;5.004;2023-11-21T07:05:05;99355.69;;;9.85;100.00
48668;BME280;34453;52.198;5.004;2023-11-21T07:07:31;99363.16;;;9.88;100.00
48668;BME280;34453;52.198;5.004;2023-11-21T07:09:57;99349.94;;;9.90;100.00
48668;BME280;34453;52.198;5.004;2023-11-21T07:12:22;99349.75;;;9.91;100.00
48668;BME280;34453;52.198;5.004;2023-11-21T07:14:50;99355.81;;;9.92;100.00
48668;BME280;34453;52.198;5.004;2023-11-21T07:17:16;99356.63;;;9.92;100.00
48668;BME280;34453;52.198;5.004;2023-11-21T07:19:42;99376.50;;;9.93;100.00
48668;BME280;34453;52.198;5.004;2023-11-21T07:22:07;99380.59;;;9.96;100.00
48668;BME280;34453;52.198;5.004;2023-11-21T07:24:33;99389.25;;;9.96;100.00
48668;BME280;34453;52.198;5.004;2023-11-21T07:26:59;99384.19;;;9.95;100.00
48668;BME280;34453;52.198;5.004;2023-11-21T07:29:25;99392.66;;;9.97;100.00
48668;BME280;34453;52.198;5.004;2023-11-21T07:31:52;99392.50;;;9.99;100.00
48668;BME280;34453;52.198;5.004;2023-11-21T07:34:17;99388.72;;;10.01;100.00
48668;BME280;34453;52.198;5.004;2023-11-21T07:36:42;99391.00;;;10.04;100.00
48668;BME280;34453;52.198;5.004;2023-11-21T07:39:08;99400.63;;;10.04;100.00
48668;BME280;34453;52.198;5.004;2023-11-21T07:41:33;99391.91;;;10.11;100.00
48668;BME280;34453;52.198;5.004;2023-11-21T07:43:58;99406.16;;;10.09;100.00
48668;BME280;34453;52.198;5.004;2023-11-21T07:46:24;99407.94;;;10.08;100.00
48668;BME280;34453;52.198;5.004;2023-11-21T07:48:51;99417.25;;;10.11;100.00
48668;BME280;34453;52.198;5.004;2023-11-21T07:51:17;99416.44;;;10.10;100.00
48668;BME280;34453;52.198;5.004;2023-11-21T07:53:42;99424.09;;;10.12;100.00
48668;BME280;34453;52.198;5.004;2023-11-21T07:56:08;99435.84;;;10.16;100.00
48668;BME280;34453;52.198;5.004;2023-11-21T07:58:34;99436.81;;;10.15;100.00
48668;BME280;34453;52.198;5.004;2023-11-21T08:01:01;99439.06;;;10.18;100.00
48668;BME280;34453;52.198;5.004;2023-11-21T08:03:27;99453.16;;;10.17;100.00
48668;BME280;34453;52.198;5.004;2023-11-21T08:05:54;99456.41;;;10.19;100.00
48668;BME280;34453;52.198;5.004;2023-11-21T08:08:19;99459.66;;;10.21;100.00
48668;BME280;34453;52.198;5.004;2023-11-21T08:10:45;99460.94;;;10.25;100.00
48668;BME280;34453;52.198;5.004;2023-11-21T08:13:21;99462.56;;;10.26;100.00
48668;BME280;34453;52.198;5.004;2023-11-21T08:15:46;99482.34;;;10.29;100.00
48668;BME280;34453;52.198;5.004;2023-11-21T08:18:12;99484.00;;;10.30;100.00
48668;BME280;34453;52.198;5.004;2023-11-21T08:20:38;99488.69;;;10.26;100.00
48668;BME280;34453;52.198;5.004;2023-11-21T08:23:05;99496.69;;;10.33;100.00
48668;BME280;34453;52.198;5.004;2023-11-21T08:25:31;99517.09;;;10.37;100.00
48668;BME280;34453;52.198;5.004;2023-11-21T08:27:56;99521.00;;;10.42;100.00
48668;BME280;34453;52.198;5.004;2023-11-21T08:30:22;99526.53;;;10.47;100.00
48668;BME280;34453;52.198;5.004;2023-11-21T08:32:49;99536.53;;;10.43;100.00
48668;BME280;34453;52.198;5.004;2023-11-21T08:35:14;99544.88;;;10.39;100.00
48668;BME280;34453;52.198;5.004;2023-11-21T08:37:41;99546.50;;;10.40;100.00
48668;BME280;34453;52.198;5.004;2023-11-21T08:40:06;99571.50;;;10.42;100.00
48668;BME280;34453;52.198;5.004;2023-11-21T08:42:37;99575.09;;;10.41;100.00
48668;BME280;34453;52.198;5.004;2023-11-21T08:45:02;99578.38;;;10.43;100.00
48668;BME280;34453;52.198;5.004;2023-11-21T08:47:28;99593.25;;;10.43;100.00
48668;BME280;34453;52.198;5.004;2023-11-21T08:49:53;99589.28;;;10.47;100.00
48668;BME280;34453;52.198;5.004;2023-11-21T08:52:19;99599.22;;;10.51;100.00
48668;BME280;34453;52.198;5.004;2023-11-21T08:54:48;99618.69;;;10.49;100.00
48668;BME280;34453;52.198;5.004;2023-11-21T08:57:13;99615.09;;;10.50;100.00
48668;BME280;34453;52.198;5.004;2023-11-21T08:59:39;99623.28;;;10.47;100.00
48668;BME280;34453;52.198;5.004;2023-11-21T09:02:04;99632.13;;;10.46;100.00
48668;BME280;34453;52.198;5.004;2023-11-21T09:04:29;99641.56;;;10.47;100.00
48668;BME280;34453;52.198;5.004;2023-11-21T09:06:54;99650.41;;;10.46;100.00
48668;BME280;34453;52.198;5.004;2023-11-21T09:09:20;99653.69;;;10.40;100.00
48668;BME280;34453;52.198;5.004;2023-11-21T09:11:45;99667.78;;;10.39;100.00
48668;BME280;34453;52.198;5.004;2023-11-21T09:14:11;99676.41;;;10.39;100.00
48668;BME280;34453;52.198;5.004;2023-11-21T09:16:38;99694.22;;;10.35;100.00
48668;BME280;34453;52.198;5.004;2023-11-21T09:19:03;99702.41;;;10.32;100.00
48668;BME280;34453;52.198;5.004;2023-11-21T09:21:30;99704.38;;;10.30;100.00
48668;BME280;34453;52.198;5.004;2023-11-21T09:23:56;99716.47;;;10.31;100.00
48668;BME280;34453;52.198;5.004;2023-11-21T09:26:21;99731.84;;;10.34;100.00
48668;BME280;34453;52.198;5.004;2023-11-21T09:28:46;99740.19;;;10.30;100.00
48668;BME280;34453;52.198;5.004;2023-11-21T09:31:13;99742.78;;;10.30;100.00
48668;BME280;34453;52.198;5.004;2023-11-21T09:33:41;99756.66;;;10.30;100.00
48668;BME280;34453;52.198;5.004;2023-11-21T09:36:10;99758.94;;;10.33;100.00
48668;BME280;34453;52.198;5.004;2023-11-21T09:38:36;99757.97;;;10.34;100.00
48668;BME280;34453;52.198;5.004;2023-11-21T09:41:01;99778.91;;;10.34;100.00
48668;BME280;34453;52.198;5.004;2023-11-21T09:43:27;99780.69;;;10.34;100.00
48668;BME280;34453;52.198;5.004;2023-11-21T09:45:59;99788.69;;;10.41;100.00
48668;BME280;34453;52.198;5.004;2023-11-21T09:48:27;99798.66;;;10.37;100.00
48668;BME280;34453;52.198;5.004;2023-11-21T09:50:54;99810.72;;;10.38;100.00
48668;BME280;34453;52.198;5.004;2023-11-21T09:53:20;99815.16;;;10.37;100.00
48668;BME280;34453;52.198;5.004;2023-11-21T09:55:47;99819.06;;;10.42;100.00
48668;BME280;34453;52.198;5.004;2023-11-21T09:58:13;99822.03;;;10.39;100.00
48668;BME280;34453;52.198;5.004;2023-11-21T10:00:42;99823.81;;;10.38;100.00
48668;BME280;34453;52.198;5.004;2023-11-21T10:03:08;99833.47;;;10.37;100.00
48668;BME280;34453;52.198;5.004;2023-11-21T10:05:34;99846.22;;;10.41;100.00
48668;BME280;34453;52.198;5.004;2023-11-21T10:07:59;99838.69;;;10.37;100.00
48668;BME280;34453;52.198;5.004;2023-11-21T10:10:25;99857.66;;;10.40;100.00
48668;BME280;34453;52.198;5.004;2023-11-21T10:12:51;99857.78;;;10.38;100.00
48668;BME280;34453;52.198;5.004;2023-11-21T10:15:23;99875.28;;;10.37;100.00
48668;BME280;34453;52.198;5.004;2023-11-21T10:17:52;99887.69;;;10.27;100.00
48668;BME280;34453;52.198;5.004;2023-11-21T10:20:19;99888.66;;;10.26;100.00
48668;BME280;34453;52.198;5.004;2023-11-21T10:22:44;99904.50;;;10.25;100.00
48668;BME280;34453;52.198;5.004;2023-11-21T10:25:10;99901.72;;;10.26;100.00
48668;BME280;34453;52.198;5.004;2023-11-21T10:27:38;99912.50;;;10.23;100.00
48668;BME280;34453;52.198;5.004;2023-11-21T10:30:04;99912.19;;;10.26;100.00
48668;BME280;34453;52.198;5.004;2023-11-21T10:32:30;99923.19;;;10.30;100.00
48668;BME280;34453;52.198;5.004;2023-11-21T10:34:57;99924.50;;;10.34;100.00
48668;BME280;34453;52.198;5.004;2023-11-21T10:37:24;99925.59;;;10.31;100.00
48668;BME280;34453;52.198;5.004;2023-11-21T10:39:50;99930.03;;;10.31;100.00
48668;BME280;34453;52.198;5.004;2023-11-21T10:42:15;99940.47;;;10.31;100.00
48668;BME280;34453;52.198;5.004;2023-11-21T10:44:43;99939.53;;;10.32;100.00
48668;BME280;34453;52.198;5.004;2023-11-21T10:47:09;99948.19;;;10.32;100.00
48668;BME280;34453;52.198;5.004;2023-11-21T10:49:37;99938.84;;;10.38;100.00
48668;BME280;34453;52.198;5.004;2023-11-21T10:52:02;99936.09;;;10.40;100.00
48668;BME280;34453;52.198;5.004;2023-11-21T10:54:29;99948.19;;;10.41;100.00
48668;BME280;34453;52.198;5.004;2023-11-21T10:56:57;99950.81;;;10.41;100.00
48668;BME280;34453;52.198;5.004;2023-11-21T10:59:24;99969.78;;;10.43;100.00
48668;BME280;34453;52.198;5.004;2023-11-21T11:01:51;99970.25;;;10.46;100.00
48668;BME280;34453;52.198;5.004;2023-11-21T11:04:20;99974.50;;;10.39;100.00
48668;BME280;34453;52.198;5.004;2023-11-21T11:07:01;99974.50;;;10.39;100.00
48668;BME280;34453;52.198;5.004;2023-11-21T11:09:28;99987.41;;;10.32;100.00
48668;BME280;34453;52.198;5.004;2023-11-21T11:11:55;99975.94;;;10.33;100.00
48668;BME280;34453;52.198;5.004;2023-11-21T11:14:20;99990.00;;;10.32;100.00
48668;BME280;34453;52.198;5.004;2023-11-21T11:16:50;99990.00;;;10.32;100.00
48668;BME280;34453;52.198;5.004;2023-11-21T11:19:15;99981.69;;;10.37;100.00
48668;BME280;34453;52.198;5.004;2023-11-21T11:21:53;100000.31;;;10.34;100.00
48668;BME280;34453;52.198;5.004;2023-11-21T11:26:56;100001.13;;;10.34;100.00
48668;BME280;34453;52.198;5.004;2023-11-21T11:32:03;99998.84;;;10.40;100.00
48668;BME280;34453;52.198;5.004;2023-11-21T11:34:45;100005.03;;;10.30;100.00
48668;BME280;34453;52.198;5.004;2023-11-21T11:37:12;100015.16;;;10.33;100.00
48668;BME280;34453;52.198;5.004;2023-11-21T11:39:41;100019.09;;;10.29;100.00
48668;BME280;34453;52.198;5.004;2023-11-21T11:42:10;100022.47;;;10.22;100.00
48668;BME280;34453;52.198;5.004;2023-11-21T11:49:54;100046.41;;;10.09;100.00
48668;BME280;34453;52.198;5.004;2023-11-21T11:54:58;100037.63;;;10.10;100.00
48668;BME280;34453;52.198;5.004;2023-11-21T11:57:24;100050.88;;;10.16;100.00
48668;BME280;34453;52.198;5.004;2023-11-21T12:00:10;100061.28;;;10.08;100.00
48668;BME280;34453;52.198;5.004;2023-11-21T12:02:36;100056.22;;;10.07;100.00
48668;BME280;34453;52.198;5.004;2023-11-21T12:05:06;100056.88;;;10.09;100.00
48668;BME280;34453;52.198;5.004;2023-11-21T12:07:45;100059.34;;;10.10;100.00
48668;BME280;34453;52.198;5.004;2023-11-21T12:10:13;100060.78;;;10.05;100.00
48668;BME280;34453;52.198;5.004;2023-11-21T12:12:43;100066.31;;;10.02;100.00
48668;BME280;34453;52.198;5.004;2023-11-21T12:15:09;100075.16;;;10.01;100.00
48668;BME280;34453;52.198;5.004;2023-11-21T12:17:35;100082.81;;;10.02;100.00
48668;BME280;34453;52.198;5.004;2023-11-21T12:20:01;100075.16;;;10.01;100.00
48668;BME280;34453;52.198;5.004;2023-11-21T12:22:28;100092.31;;;10.03;100.00
48668;BME280;34453;52.198;5.004;2023-11-21T12:24:56;100099.34;;;10.03;100.00
48668;BME280;34453;52.198;5.004;2023-11-21T12:27:21;100105.53;;;10.02;100.00
48668;BME280;34453;52.198;5.004;2023-11-21T12:29:46;100103.56;;;10.04;100.00
48668;BME280;34453;52.198;5.004;2023-11-21T12:32:11;100107.19;;;10.03;100.00
48668;BME280;34453;52.198;5.004;2023-11-21T12:34:38;100113.56;;;10.08;100.00
48668;BME280;34453;52.198;5.004;2023-11-21T12:37:04;100108.66;;;10.05;100.00
48668;BME280;34453;52.198;5.004;2023-11-21T12:39:29;100113.34;;;10.02;100.00
48668;BME280;34453;52.198;5.004;2023-11-21T12:41:55;100118.63;;;10.10;100.00
48668;BME280;34453;52.198;5.004;2023-11-21T12:44:20;100119.59;;;10.09;100.00
48668;BME280;34453;52.198;5.004;2023-11-21T12:46:48;100120.06;;;10.04;100.00
48668;BME280;34453;52.198;5.004;2023-11-21T12:49:15;100132.31;;;10.04;100.00
48668;BME280;34453;52.198;5.004;2023-11-21T12:51:43;100140.78;;;9.98;100.00
48668;BME280;34453;52.198;5.004;2023-11-21T12:54:09;100146.81;;;9.98;100.00
48668;BME280;34453;52.198;5.004;2023-11-21T12:56:38;100144.38;;;9.96;100.00
48668;BME280;34453;52.198;5.004;2023-11-21T12:59:03;100147.59;;;9.90;100.00
48668;BME280;34453;52.198;5.004;2023-11-21T13:01:29;100152.00;;;9.90;100.00
48668;BME280;34453;52.198;5.004;2023-11-21T13:03:59;100161.94;;;9.86;100.00